createdAt,value
2023-03-26T00:02:08.914Z,7.96
2023-03-26T00:04:37.280Z,7.95
2023-03-26T00:07:05.771Z,7.93
2023-03-26T00:09:34.046Z,7.92
2023-03-26T00:12:03.270Z,7.90
2023-03-26T00:14:35.492Z,7.89
2023-03-26T00:17:04.421Z,7.88
2023-03-26T00:19:33.974Z,7.87
2023-03-26T00:22:03.696Z,7.86
2023-03-26T00:24:32.222Z,7.85
2023-03-26T00:27:04.392Z,7.83
2023-03-26T00:29:37.186Z,7.81
2023-03-26T00:32:06.290Z,7.80
2023-03-26T00:34:35.299Z,7.79
2023-03-26T00:37:04.283Z,7.78
2023-03-26T00:39:35.147Z,7.76
2023-03-26T00:42:07.260Z,7.74
2023-03-26T00:44:35.851Z,7.72
2023-03-26T00:47:04.421Z,7.71
2023-03-26T00:49:32.904Z,7.70
2023-03-26T00:52:03.644Z,7.70
2023-03-26T00:54:32.554Z,7.69
2023-03-26T00:57:01.922Z,7.68
2023-03-26T00:59:32.002Z,7.69
2023-03-26T01:02:00.555Z,7.70
2023-03-26T01:04:32.188Z,7.69
2023-03-26T01:07:11.021Z,7.70
2023-03-26T01:09:44.994Z,7.69
2023-03-26T01:12:22.823Z,7.70
2023-03-26T01:14:52.340Z,7.70
2023-03-26T01:17:21.932Z,7.70
2023-03-26T01:19:52.084Z,7.71
2023-03-26T01:22:25.607Z,7.73
2023-03-26T01:24:56.413Z,7.74
2023-03-26T01:27:27.422Z,7.74
2023-03-26T01:30:10.007Z,7.76
2023-03-26T01:32:49.186Z,7.76
2023-03-26T01:35:40.878Z,7.78
2023-03-26T01:38:49.516Z,7.80
2023-03-26T01:41:20.622Z,7.80
2023-03-26T01:44:14.868Z,7.80
2023-03-26T01:46:43.621Z,7.81
2023-03-26T01:49:15.651Z,7.81
2023-03-26T01:51:44.855Z,7.80
2023-03-26T01:54:19.114Z,7.80
2023-03-26T01:57:11.714Z,7.81
2023-03-26T02:00:20.851Z,7.82
2023-03-26T02:03:18.280Z,7.81
2023-03-26T02:06:30.674Z,7.80
2023-03-26T02:09:03.660Z,7.78
2023-03-26T02:11:35.525Z,7.77
2023-03-26T02:14:07.212Z,7.77
2023-03-26T02:16:35.948Z,7.75
2023-03-26T02:19:05.128Z,7.72
2023-03-26T02:21:34.160Z,7.69
2023-03-26T02:24:05.378Z,7.66
2023-03-26T02:26:36.024Z,7.64
2023-03-26T02:29:10.172Z,7.61
2023-03-26T02:31:39.141Z,7.58
2023-03-26T02:34:07.563Z,7.55
2023-03-26T02:36:37.365Z,7.52
2023-03-26T02:39:05.857Z,7.49
2023-03-26T02:41:38.262Z,7.47
2023-03-26T02:44:10.380Z,7.45
2023-03-26T02:47:05.128Z,7.42
2023-03-26T02:49:52.329Z,7.39
2023-03-26T02:52:27.911Z,7.38
2023-03-26T02:54:57.456Z,7.36
2023-03-26T02:57:26.838Z,7.34
2023-03-26T03:00:22.851Z,7.32
2023-03-26T03:03:26.768Z,7.28
2023-03-26T03:06:01.156Z,7.27
2023-03-26T03:08:34.087Z,7.25
2023-03-26T03:11:13.403Z,7.22
2023-03-26T03:13:50.737Z,7.18
2023-03-26T03:16:30.692Z,7.15
2023-03-26T03:19:02.032Z,7.13
2023-03-26T03:21:45.538Z,7.11
2023-03-26T03:24:18.552Z,7.09
2023-03-26T03:26:48.364Z,7.07
2023-03-26T03:29:38.846Z,7.03
2023-03-26T03:32:25.979Z,7.00
2023-03-26T03:34:56.593Z,6.97
2023-03-26T03:37:26.359Z,6.94
2023-03-26T03:39:55.626Z,6.89
2023-03-26T03:42:27.569Z,6.85
2023-03-26T03:44:58.103Z,6.79
2023-03-26T03:47:47.386Z,6.72
2023-03-26T03:50:17.255Z,6.66
2023-03-26T03:52:59.216Z,6.61
2023-03-26T03:55:27.701Z,6.56
2023-03-26T03:57:58.466Z,6.50
2023-03-26T04:00:27.361Z,6.44
2023-03-26T04:03:33.918Z,6.36
2023-03-26T04:06:06.973Z,6.27
2023-03-26T04:08:35.615Z,6.19
2023-03-26T04:11:05.830Z,6.11
2023-03-26T04:13:52.634Z,6.03
2023-03-26T04:16:41.065Z,5.95
2023-03-26T04:19:14.513Z,5.89
2023-03-26T04:21:45.860Z,5.81
2023-03-26T04:24:14.036Z,5.76
2023-03-26T04:27:08.738Z,5.71
2023-03-26T04:29:44.426Z,5.67
2023-03-26T04:32:29.752Z,5.64
2023-03-26T04:35:01.013Z,5.62
2023-03-26T04:37:35.297Z,5.62
2023-03-26T04:40:18.413Z,5.61
2023-03-26T04:43:02.357Z,5.61
2023-03-26T04:45:52.409Z,5.63
2023-03-26T04:48:22.050Z,5.64
2023-03-26T04:50:50.432Z,5.65
2023-03-26T04:53:21.482Z,5.67
2023-03-26T04:56:39.223Z,5.72
2023-03-26T04:59:30.424Z,5.81
2023-03-26T05:02:00.334Z,5.89
2023-03-26T05:04:31.675Z,5.97
2023-03-26T05:07:00.867Z,6.05
2023-03-26T05:09:42.236Z,6.08
2023-03-26T05:12:16.615Z,6.07
2023-03-26T05:15:08.335Z,6.09
2023-03-26T05:17:55.670Z,6.18
2023-03-26T05:20:33.805Z,6.34
2023-03-26T05:23:07.513Z,6.52
2023-03-26T05:25:41.789Z,6.70
2023-03-26T05:28:19.541Z,6.83
2023-03-26T05:31:22.254Z,6.93
2023-03-26T05:33:55.078Z,7.01
2023-03-26T05:36:28.400Z,7.11
2023-03-26T05:39:05.736Z,7.19
2023-03-26T05:41:59.934Z,7.28
2023-03-26T05:44:40.796Z,7.35
2023-03-26T05:47:16.115Z,7.40
2023-03-26T05:49:44.414Z,7.42
2023-03-26T05:52:19.078Z,7.45
2023-03-26T05:55:08.050Z,7.48
2023-03-26T05:58:09.021Z,7.52
2023-03-26T06:01:05.444Z,7.59
2023-03-26T06:03:44.819Z,7.69
2023-03-26T06:06:19.461Z,7.78
2023-03-26T06:09:02.117Z,7.88
2023-03-26T06:11:32.410Z,7.96
2023-03-26T06:14:09.102Z,7.99
2023-03-26T06:16:40.288Z,8.01
2023-03-26T06:19:15.932Z,8.03
2023-03-26T06:21:52.440Z,8.06
2023-03-26T06:24:24.609Z,8.10
2023-03-26T06:27:16.581Z,8.18
2023-03-26T06:30:15.758Z,8.28
2023-03-26T06:50:32.347Z,9.22
2023-03-26T06:53:15.139Z,9.32
2023-03-26T06:56:17.615Z,9.42
2023-03-26T06:59:10.639Z,9.48
2023-03-26T07:01:55.842Z,9.53
2023-03-26T07:04:41.367Z,9.61
2023-03-26T07:07:26.737Z,9.70
2023-03-26T07:10:12.992Z,9.73
2023-03-26T07:13:07.082Z,9.75
2023-03-26T07:15:54.043Z,9.78
2023-03-26T07:18:30.675Z,9.86
2023-03-26T07:20:58.276Z,9.96
2023-03-26T07:23:29.522Z,10.07
2023-03-26T07:26:26.399Z,10.15
2023-03-26T07:29:22.591Z,10.21
2023-03-26T07:32:48.601Z,10.25
2023-03-26T07:36:24.993Z,10.27
2023-03-26T07:39:36.521Z,10.28
2023-03-26T07:42:50.971Z,10.30
2023-03-26T07:45:39.375Z,10.29
2023-03-26T07:48:24.889Z,10.30
2023-03-26T07:51:08.555Z,10.33
2023-03-26T07:53:59.685Z,10.37
2023-03-26T07:56:58.827Z,10.39
2023-03-26T07:59:44.976Z,10.34
2023-03-26T08:02:43.453Z,10.29
2023-03-26T08:06:06.540Z,10.25
2023-03-26T08:08:55.514Z,10.24
2023-03-26T08:12:13.667Z,10.21
2023-03-26T08:14:50.785Z,10.17
2023-03-26T08:17:47.388Z,10.16
2023-03-26T08:20:33.668Z,10.17
2023-03-26T08:23:37.521Z,10.20
2023-03-26T08:26:27.163Z,10.33
2023-03-26T08:28:56.597Z,10.51
2023-03-26T08:31:28.339Z,10.70
2023-03-26T08:33:55.070Z,10.89
2023-03-26T08:36:21.830Z,11.07
2023-03-26T08:38:51.926Z,11.23
2023-03-26T08:41:35.210Z,11.42
2023-03-26T08:44:13.049Z,11.57
2023-03-26T08:47:01.734Z,11.71
2023-03-26T08:50:03.236Z,11.80
2023-03-26T08:52:45.594Z,11.82
2023-03-26T08:55:54.170Z,11.78
2023-03-26T08:58:40.002Z,11.76
2023-03-26T09:01:26.484Z,11.73
2023-03-26T09:04:15.811Z,11.64
2023-03-26T09:06:52.639Z,11.54
2023-03-26T09:09:58.048Z,11.50
2023-03-26T09:12:56.178Z,11.54
2023-03-26T09:15:44.918Z,11.61
2023-03-26T09:18:22.845Z,11.62
2023-03-26T09:20:58.623Z,11.60
2023-03-26T09:23:28.295Z,11.55
2023-03-26T10:41:17.764Z,13.08
2023-03-26T10:44:40.362Z,13.05
2023-03-26T10:47:30.593Z,12.91
2023-03-26T10:50:01.729Z,12.69
2023-03-26T10:52:53.098Z,12.38
2023-03-26T10:55:26.474Z,11.80
2023-03-26T10:58:10.815Z,11.13
2023-03-26T11:00:44.854Z,10.52
2023-03-26T11:03:52.034Z,10.12
2023-03-26T11:06:32.149Z,9.90
2023-03-26T11:09:22.488Z,9.88
2023-03-26T11:12:26.991Z,9.96
2023-03-26T11:15:31.242Z,10.20
2023-03-26T11:18:24.309Z,10.57
2023-03-26T11:21:19.106Z,10.93
2023-03-26T11:24:23.258Z,11.23
2023-03-26T11:26:55.777Z,11.47
2023-03-26T11:29:31.264Z,11.58
2023-03-26T11:32:06.049Z,11.66
2023-03-26T11:34:40.019Z,11.68
2023-03-26T11:37:20.159Z,11.66
2023-03-26T11:39:55.132Z,11.59
2023-03-26T11:42:24.854Z,11.53
2023-03-26T11:44:56.383Z,11.49
2023-03-26T11:47:36.467Z,11.46
2023-03-26T11:50:07.177Z,11.46
2023-03-26T11:52:35.211Z,11.49
2023-03-26T11:55:03.847Z,11.53
2023-03-26T11:57:33.456Z,11.61
2023-03-26T12:00:10.933Z,11.70
2023-03-26T12:02:57.472Z,11.83
2023-03-26T12:05:31.460Z,12.00
2023-03-26T12:08:03.375Z,12.19
2023-03-26T12:10:39.151Z,12.32
2023-03-26T12:13:24.996Z,12.41
2023-03-26T12:15:58.523Z,12.46
2023-03-26T12:18:28.032Z,12.48
2023-03-26T12:21:11.370Z,12.49
2023-03-26T12:23:43.824Z,12.44
2023-03-26T12:26:41.376Z,12.31
2023-03-26T12:29:11.800Z,12.01
2023-03-26T12:31:49.865Z,11.68
2023-03-26T12:34:21.699Z,11.47
2023-03-26T12:36:55.407Z,11.36
2023-03-26T12:40:10.557Z,11.35
2023-03-26T12:44:49.730Z,11.36
2023-03-26T12:45:23.135Z,11.39
2023-03-26T12:48:02.312Z,11.41
2023-03-26T12:50:48.560Z,11.43
2023-03-26T12:53:41.359Z,11.40
2023-03-26T12:56:09.418Z,11.36
2023-03-26T12:58:44.117Z,11.34
2023-03-26T13:01:38.422Z,11.29
2023-03-26T13:04:08.376Z,11.23
2023-03-26T13:06:59.486Z,11.20
2023-03-26T13:09:38.381Z,11.17
2023-03-26T13:12:14.426Z,11.14
2023-03-26T13:15:02.073Z,11.12
2023-03-26T13:17:52.185Z,11.08
2023-03-26T13:20:34.123Z,11.06
2023-03-26T13:23:44.005Z,11.11
2023-03-26T13:26:47.116Z,11.28
2023-03-26T13:29:18.673Z,11.45
2023-03-26T13:31:55.947Z,11.53
2023-03-26T13:34:54.909Z,11.60
2023-03-26T13:40:43.442Z,11.74
2023-03-26T13:43:59.806Z,11.78
2023-03-26T13:46:40.021Z,11.83
2023-03-26T13:49:08.346Z,11.83
2023-03-26T13:51:58.688Z,11.82
2023-03-26T13:54:35.988Z,11.78
2023-03-26T13:57:29.911Z,11.75
2023-03-26T13:59:59.887Z,11.73
2023-03-26T14:02:34.651Z,11.75
2023-03-26T14:05:46.244Z,11.78
2023-03-26T14:08:25.190Z,11.82
2023-03-26T14:10:59.353Z,11.82
2023-03-26T14:13:31.378Z,11.79
2023-03-26T14:16:09.634Z,11.76
2023-03-26T14:18:51.513Z,11.72
2023-03-26T14:21:28.949Z,11.66
2023-03-26T14:24:03.524Z,11.59
2023-03-26T14:26:58.292Z,11.53
2023-03-26T14:29:56.607Z,11.47
2023-03-26T14:32:51.802Z,11.34
2023-03-26T14:35:26.415Z,11.21
2023-03-26T14:38:15.101Z,11.14
2023-03-26T14:41:24.647Z,11.11
2023-03-26T14:44:24.338Z,11.13
2023-03-26T14:47:11.282Z,11.17
2023-03-26T14:50:04.783Z,11.20
2023-03-26T14:52:50.105Z,11.22
2023-03-26T14:55:42.165Z,11.22
2023-03-26T14:58:34.048Z,11.23
2023-03-26T15:01:25.151Z,11.22
2023-03-26T15:04:11.712Z,11.20
2023-03-26T15:07:12.941Z,11.16
2023-03-26T15:10:22.769Z,11.11
2023-03-26T15:13:17.550Z,11.06
2023-03-26T15:16:26.120Z,11.02
2023-03-26T15:19:21.994Z,10.98
2023-03-26T15:22:32.318Z,10.94
2023-03-26T15:25:54.813Z,10.90
2023-03-26T15:28:32.102Z,10.87
2023-03-26T15:31:37.676Z,10.85
2023-03-26T15:34:20.146Z,10.83
2023-03-26T15:37:00.441Z,10.83
2023-03-26T15:39:58.987Z,10.82
2023-03-26T15:42:35.516Z,10.81
2023-03-26T15:45:20.150Z,10.78
2023-03-26T15:48:14.138Z,10.75
2023-03-26T15:51:03.969Z,10.73
2023-03-26T15:53:55.539Z,10.70
2023-03-26T15:56:49.246Z,10.65
2023-03-26T15:59:47.442Z,10.58
2023-03-26T16:02:38.993Z,10.50
2023-03-26T16:05:39.602Z,10.42
2023-03-26T16:08:38.849Z,10.33
2023-03-26T16:11:09.466Z,10.26
2023-03-26T16:13:42.620Z,10.19
2023-03-26T16:16:19.910Z,10.12
2023-03-26T16:18:54.423Z,10.05
2023-03-26T16:21:32.739Z,9.94
2023-03-26T16:24:08.248Z,9.86
2023-03-26T16:26:37.313Z,9.78
2023-03-26T16:29:14.644Z,9.69
2023-03-26T16:32:17.725Z,9.62
2023-03-26T16:34:45.811Z,9.54
2023-03-26T16:37:36.288Z,9.48
2023-03-26T16:40:16.922Z,9.44
2023-03-26T16:42:48.431Z,9.42
2023-03-26T16:45:22.952Z,9.42
2023-03-26T16:47:55.719Z,9.41
2023-03-26T16:50:31.101Z,9.42
2023-03-26T16:53:15.588Z,9.43
2023-03-26T16:55:51.268Z,9.44
2023-03-26T16:58:48.137Z,9.44
2023-03-26T17:01:36.106Z,9.44
2023-03-26T17:04:23.397Z,9.43
2023-03-26T17:07:01.934Z,9.42
2023-03-26T17:09:51.860Z,9.41
2023-03-26T17:12:29.248Z,9.38
2023-03-26T17:15:18.363Z,9.33
2023-03-26T17:18:01.993Z,9.27
2023-03-26T17:20:58.578Z,9.21
2023-03-26T17:23:27.194Z,9.15
2023-03-26T17:26:11.804Z,9.10
2023-03-26T17:29:10.228Z,9.06
2023-03-26T17:31:38.747Z,9.02
2023-03-26T17:34:51.949Z,9.00
2023-03-26T17:37:23.536Z,8.96
2023-03-26T17:40:00.454Z,8.93
2023-03-26T17:42:36.115Z,8.89
2023-03-26T17:45:29.103Z,8.84
2023-03-26T17:47:58.980Z,8.79
2023-03-26T17:50:46.915Z,8.74
2023-03-26T17:53:32.607Z,8.69
2023-03-26T17:56:04.007Z,8.63
2023-03-26T17:58:50.879Z,8.56
2023-03-26T18:01:39.275Z,8.48
2023-03-26T18:04:11.666Z,8.42
2023-03-26T18:06:49.947Z,8.36
2023-03-26T18:09:37.733Z,8.33
2023-03-26T18:12:11.723Z,8.32
2023-03-26T18:15:17.836Z,8.32
2023-03-26T18:17:47.023Z,8.29
2023-03-26T18:20:23.353Z,8.25
2023-03-26T18:22:51.881Z,8.22
2023-03-26T18:25:35.089Z,8.18
2023-03-26T18:28:03.374Z,8.13
2023-03-26T18:30:31.690Z,8.07
2023-03-26T18:33:01.258Z,8.00
2023-03-26T18:35:41.930Z,7.95
2023-03-26T18:38:35.845Z,7.88
2023-03-26T18:41:08.071Z,7.81
2023-03-26T18:43:44.733Z,7.74
2023-03-26T18:46:13.948Z,7.69
2023-03-26T18:48:44.145Z,7.67
2023-03-26T18:51:15.960Z,7.68
2023-03-26T18:53:55.135Z,7.70
2023-03-26T18:56:40.409Z,7.71
2023-03-26T18:59:28.149Z,7.73
2023-03-26T19:01:59.446Z,7.73
2023-03-26T19:04:28.483Z,7.72
2023-03-26T19:06:56.948Z,7.71
2023-03-26T19:09:31.555Z,7.69
2023-03-26T19:12:28.485Z,7.68
2023-03-26T19:15:07.909Z,7.66
2023-03-26T19:17:44.781Z,7.62
2023-03-26T19:20:16.931Z,7.56
2023-03-26T19:22:46.405Z,7.49
2023-03-26T19:25:21.707Z,7.43
2023-03-26T19:27:50.780Z,7.37
2023-03-26T19:30:29.351Z,7.33
2023-03-26T19:33:12.196Z,7.30
2023-03-26T19:35:45.492Z,7.26
2023-03-26T19:38:38.039Z,7.23
2023-03-26T19:41:06.358Z,7.20
2023-03-26T19:43:35.969Z,7.16
2023-03-26T19:46:04.165Z,7.11
2023-03-26T19:48:46.013Z,7.03
2023-03-26T19:51:23.008Z,6.94
2023-03-26T19:53:55.895Z,6.87
2023-03-26T19:56:24.169Z,6.80
2023-03-26T19:58:52.676Z,6.76
2023-03-26T20:01:25.766Z,6.74
2023-03-26T20:03:57.806Z,6.73
2023-03-26T20:06:41.853Z,6.72
2023-03-26T20:09:12.534Z,6.68
2023-03-26T20:11:41.280Z,6.65
2023-03-26T20:14:17.288Z,6.61
2023-03-26T20:16:46.196Z,6.55
2023-03-26T20:19:15.179Z,6.50
2023-03-26T20:21:46.203Z,6.46
2023-03-26T20:24:17.623Z,6.41
2023-03-26T20:26:46.216Z,6.36
2023-03-26T20:29:14.607Z,6.29
2023-03-26T20:31:43.159Z,6.25
2023-03-26T20:34:32.350Z,6.21
2023-03-26T20:37:01.380Z,6.18
2023-03-26T20:39:29.751Z,6.12
2023-03-26T20:41:59.905Z,6.07
2023-03-26T20:44:28.301Z,6.01
2023-03-26T20:46:57.297Z,5.95
2023-03-26T20:49:29.291Z,5.91
2023-03-26T20:51:59.644Z,5.86
2023-03-26T20:54:30.402Z,5.81
2023-03-26T20:56:59.428Z,5.74
2023-03-26T20:59:32.854Z,5.67
2023-03-26T21:02:02.156Z,5.61
2023-03-26T21:04:30.608Z,5.56
2023-03-26T21:07:07.270Z,5.51
2023-03-26T21:09:42.296Z,5.46
2023-03-26T21:12:42.243Z,5.41
2023-03-26T21:15:22.770Z,5.31
2023-03-26T21:17:53.148Z,5.22
2023-03-26T21:20:22.721Z,5.09
2023-03-26T21:23:04.045Z,4.93
2023-03-26T21:25:39.018Z,4.79
2023-03-26T21:28:28.940Z,4.70
2023-03-26T21:31:05.906Z,4.62
2023-03-26T21:33:34.530Z,4.57
2023-03-26T21:36:05.771Z,4.53
2023-03-26T21:38:35.510Z,4.51
2023-03-26T21:41:08.063Z,4.47
2023-03-26T21:43:36.703Z,4.43
2023-03-26T21:46:05.698Z,4.38
2023-03-26T21:48:34.630Z,4.35
2023-03-26T21:51:04.801Z,4.33
2023-03-26T21:56:47.484Z,4.33
2023-03-26T21:59:43.924Z,4.28
2023-03-26T22:02:54.428Z,4.25
2023-03-26T22:05:49.149Z,4.20
2023-03-26T22:08:31.613Z,4.14
2023-03-26T22:10:59.695Z,4.09
2023-03-26T22:13:29.521Z,4.05
2023-03-26T22:15:58.282Z,4.02
2023-03-26T22:18:30.352Z,3.99
2023-03-26T22:20:59.341Z,3.96
2023-03-26T22:23:34.246Z,3.92
2023-03-26T22:26:03.397Z,3.88
2023-03-26T22:28:32.611Z,3.85
2023-03-26T22:31:07.395Z,3.83
2023-03-26T22:33:36.258Z,3.81
2023-03-26T22:36:06.388Z,3.80
2023-03-26T22:38:53.929Z,3.80
2023-03-26T22:41:23.789Z,3.80
2023-03-26T22:43:54.943Z,3.79
2023-03-26T22:46:24.605Z,3.79
2023-03-26T22:48:54.214Z,3.81
2023-03-26T22:51:24.872Z,3.83
2023-03-26T22:53:53.238Z,3.84
2023-03-26T22:56:21.711Z,3.84
2023-03-26T22:58:49.753Z,3.86
2023-03-26T23:01:21.243Z,3.87
2023-03-26T23:03:49.272Z,3.90
2023-03-26T23:06:17.196Z,3.92
2023-03-26T23:08:46.428Z,3.94
2023-03-26T23:11:16.159Z,3.94
2023-03-26T23:13:47.710Z,3.94
2023-03-26T23:16:16.243Z,3.93
2023-03-26T23:18:47.249Z,3.92
2023-03-26T23:21:18.427Z,3.92
2023-03-26T23:23:50.327Z,3.93
2023-03-26T23:26:19.495Z,3.93
2023-03-26T23:28:48.427Z,3.94
2023-03-26T23:31:16.789Z,3.94
2023-03-26T23:33:50.173Z,3.93
2023-03-26T23:39:42.709Z,3.86
2023-03-26T23:42:11.715Z,3.79
2023-03-26T23:44:46.447Z,3.74
2023-03-26T23:47:16.719Z,3.68
2023-03-26T23:49:45.028Z,3.61
2023-03-26T23:52:13.785Z,3.55
2023-03-26T23:54:42.655Z,3.49
2023-03-26T23:57:11.541Z,3.44
2023-03-26T23:59:43.744Z,3.38
